sensor_id;sensor_type;location;lat;lon;timestamp;temperature;humidity
68764;DHT22;55754;52.038;5.566;2022-11-09T00:02:11;14.10;80.10
68764;DHT22;55754;52.038;5.566;2022-11-09T00:04:36;14.10;80.20
68764;DHT22;55754;52.038;5.566;2022-11-09T00:07:02;14.10;80.20
68764;DHT22;55754;52.038;5.566;2022-11-09T00:09:27;14.10;80.10
68764;DHT22;55754;52.038;5.566;2022-11-09T00:11:53;14.10;80.10
68764;DHT22;55754;52.038;5.566;2022-11-09T00:14:19;14.10;80.00
68764;DHT22;55754;52.038;5.566;2022-11-09T00:16:50;14.20;80.00
68764;DHT22;55754;52.038;5.566;2022-11-09T00:19:19;14.20;80.00
68764;DHT22;55754;52.038;5.566;2022-11-09T00:21:53;14.10;79.90
68764;DHT22;55754;52.038;5.566;2022-11-09T00:24:19;14.10;79.90
68764;DHT22;55754;52.038;5.566;2022-11-09T00:26:45;14.10;79.90
68764;DHT22;55754;52.038;5.566;2022-11-09T00:29:10;14.10;79.90
68764;DHT22;55754;52.038;5.566;2022-11-09T00:31:36;14.10;79.90
68764;DHT22;55754;52.038;5.566;2022-11-09T00:34:01;14.10;79.90
68764;DHT22;55754;52.038;5.566;2022-11-09T00:36:28;14.00;79.90
68764;DHT22;55754;52.038;5.566;2022-11-09T00:38:58;14.00;79.90
68764;DHT22;55754;52.038;5.566;2022-11-09T00:41:25;14.00;80.00
68764;DHT22;55754;52.038;5.566;2022-11-09T00:43:51;14.00;80.00
68764;DHT22;55754;52.038;5.566;2022-11-09T00:46:17;14.00;80.00
68764;DHT22;55754;52.038;5.566;2022-11-09T00:48:44;14.00;80.00
68764;DHT22;55754;52.038;5.566;2022-11-09T00:51:10;14.00;80.00
68764;DHT22;55754;52.038;5.566;2022-11-09T00:53:35;14.00;80.90
68764;DHT22;55754;52.038;5.566;2022-11-09T00:56:06;14.00;80.00
68764;DHT22;55754;52.038;5.566;2022-11-09T00:58:34;14.00;80.10
68764;DHT22;55754;52.038;5.566;2022-11-09T01:01:20;13.90;80.00
68764;DHT22;55754;52.038;5.566;2022-11-09T01:03:46;14.00;80.10
68764;DHT22;55754;52.038;5.566;2022-11-09T01:06:17;13.90;80.00
68764;DHT22;55754;52.038;5.566;2022-11-09T01:08:44;13.90;80.10
68764;DHT22;55754;52.038;5.566;2022-11-09T01:11:11;13.90;80.00
68764;DHT22;55754;52.038;5.566;2022-11-09T01:13:37;13.90;80.00
68764;DHT22;55754;52.038;5.566;2022-11-09T01:16:09;13.90;79.90
68764;DHT22;55754;52.038;5.566;2022-11-09T01:18:34;13.90;79.80
68764;DHT22;55754;52.038;5.566;2022-11-09T01:21:02;13.90;79.80
68764;DHT22;55754;52.038;5.566;2022-11-09T01:23:27;13.90;79.80
68764;DHT22;55754;52.038;5.566;2022-11-09T01:26:01;13.80;79.70
68764;DHT22;55754;52.038;5.566;2022-11-09T01:28:28;13.90;79.90
68764;DHT22;55754;52.038;5.566;2022-11-09T01:30:53;13.80;79.80
68764;DHT22;55754;52.038;5.566;2022-11-09T01:33:19;13.80;79.80
68764;DHT22;55754;52.038;5.566;2022-11-09T01:35:44;13.80;79.80
68764;DHT22;55754;52.038;5.566;2022-11-09T01:38:10;13.80;79.80
68764;DHT22;55754;52.038;5.566;2022-11-09T01:40:37;13.80;79.80
68764;DHT22;55754;52.038;5.566;2022-11-09T01:43:17;13.80;79.90
68764;DHT22;55754;52.038;5.566;2022-11-09T01:45:49;13.80;79.90
68764;DHT22;55754;52.038;5.566;2022-11-09T01:48:19;13.70;79.90
68764;DHT22;55754;52.038;5.566;2022-11-09T01:50:56;13.70;80.10
68764;DHT22;55754;52.038;5.566;2022-11-09T01:53:28;13.70;80.20
68764;DHT22;55754;52.038;5.566;2022-11-09T01:56:05;13.70;80.30
68764;DHT22;55754;52.038;5.566;2022-11-09T01:58:46;13.70;80.30
68764;DHT22;55754;52.038;5.566;2022-11-09T02:01:14;13.70;80.40
68764;DHT22;55754;52.038;5.566;2022-11-09T02:03:49;13.70;80.50
68764;DHT22;55754;52.038;5.566;2022-11-09T02:06:17;13.70;80.60
68764;DHT22;55754;52.038;5.566;2022-11-09T02:08:45;13.70;80.60
68764;DHT22;55754;52.038;5.566;2022-11-09T02:11:15;13.70;80.60
68764;DHT22;55754;52.038;5.566;2022-11-09T02:13:45;13.70;80.60
68764;DHT22;55754;52.038;5.566;2022-11-09T02:16:12;13.60;80.80
68764;DHT22;55754;52.038;5.566;2022-11-09T02:18:50;13.70;80.70
68764;DHT22;55754;52.038;5.566;2022-11-09T02:21:16;13.60;80.70
68764;DHT22;55754;52.038;5.566;2022-11-09T02:23:42;13.60;80.70
68764;DHT22;55754;52.038;5.566;2022-11-09T02:29:19;13.70;80.80
68764;DHT22;55754;52.038;5.566;2022-11-09T02:31:50;13.70;80.80
68764;DHT22;55754;52.038;5.566;2022-11-09T02:34:19;13.70;80.90
68764;DHT22;55754;52.038;5.566;2022-11-09T02:36:44;13.60;80.90
68764;DHT22;55754;52.038;5.566;2022-11-09T02:39:12;13.60;81.00
68764;DHT22;55754;52.038;5.566;2022-11-09T02:41:51;13.60;81.20
68764;DHT22;55754;52.038;5.566;2022-11-09T02:44:18;13.60;81.40
68764;DHT22;55754;52.038;5.566;2022-11-09T02:46:44;13.60;81.50
68764;DHT22;55754;52.038;5.566;2022-11-09T02:49:10;13.60;81.50
68764;DHT22;55754;52.038;5.566;2022-11-09T02:51:36;13.60;81.70
68764;DHT22;55754;52.038;5.566;2022-11-09T02:54:01;13.50;81.70
68764;DHT22;55754;52.038;5.566;2022-11-09T02:56:27;13.50;81.90
68764;DHT22;55754;52.038;5.566;2022-11-09T02:58:52;13.50;82.00
68764;DHT22;55754;52.038;5.566;2022-11-09T03:01:18;13.50;82.10
68764;DHT22;55754;52.038;5.566;2022-11-09T03:03:46;13.50;82.10
68764;DHT22;55754;52.038;5.566;2022-11-09T03:06:12;13.50;82.20
68764;DHT22;55754;52.038;5.566;2022-11-09T03:08:38;13.50;82.20
68764;DHT22;55754;52.038;5.566;2022-11-09T03:11:03;13.50;82.10
68764;DHT22;55754;52.038;5.566;2022-11-09T03:13:30;13.50;82.20
68764;DHT22;55754;52.038;5.566;2022-11-09T03:15:56;13.60;82.20
68764;DHT22;55754;52.038;5.566;2022-11-09T03:18:22;13.60;82.20
68764;DHT22;55754;52.038;5.566;2022-11-09T03:20:50;13.60;82.20
68764;DHT22;55754;52.038;5.566;2022-11-09T03:23:15;13.60;82.20
68764;DHT22;55754;52.038;5.566;2022-11-09T03:25:41;13.50;82.20
68764;DHT22;55754;52.038;5.566;2022-11-09T03:28:07;13.50;82.20
68764;DHT22;55754;52.038;5.566;2022-11-09T03:30:33;13.60;82.30
68764;DHT22;55754;52.038;5.566;2022-11-09T03:33:05;13.50;82.10
68764;DHT22;55754;52.038;5.566;2022-11-09T03:35:35;13.50;82.30
68764;DHT22;55754;52.038;5.566;2022-11-09T03:38:02;13.50;82.20
68764;DHT22;55754;52.038;5.566;2022-11-09T03:40:28;13.50;82.20
68764;DHT22;55754;52.038;5.566;2022-11-09T03:42:54;13.50;82.10
68764;DHT22;55754;52.038;5.566;2022-11-09T03:45:19;13.50;82.20
68764;DHT22;55754;52.038;5.566;2022-11-09T03:47:46;13.50;82.10
68764;DHT22;55754;52.038;5.566;2022-11-09T03:50:13;13.50;82.10
68764;DHT22;55754;52.038;5.566;2022-11-09T03:52:39;13.50;82.10
68764;DHT22;55754;52.038;5.566;2022-11-09T03:55:08;13.40;82.10
68764;DHT22;55754;52.038;5.566;2022-11-09T03:57:33;13.40;82.00
68764;DHT22;55754;52.038;5.566;2022-11-09T03:59:59;13.40;82.00
68764;DHT22;55754;52.038;5.566;2022-11-09T04:02:24;13.40;82.10
68764;DHT22;55754;52.038;5.566;2022-11-09T04:04:50;13.40;82.00
68764;DHT22;55754;52.038;5.566;2022-11-09T04:07:15;13.40;82.10
68764;DHT22;55754;52.038;5.566;2022-11-09T04:09:41;13.40;82.10
68764;DHT22;55754;52.038;5.566;2022-11-09T04:12:06;13.30;82.10
68764;DHT22;55754;52.038;5.566;2022-11-09T04:14:32;13.30;82.20
68764;DHT22;55754;52.038;5.566;2022-11-09T04:16:58;13.30;82.20
68764;DHT22;55754;52.038;5.566;2022-11-09T04:19:23;13.30;82.10
68764;DHT22;55754;52.038;5.566;2022-11-09T04:21:51;13.30;82.20
68764;DHT22;55754;52.038;5.566;2022-11-09T04:24:19;13.20;82.10
68764;DHT22;55754;52.038;5.566;2022-11-09T04:26:48;13.20;82.10
68764;DHT22;55754;52.038;5.566;2022-11-09T04:29:14;13.20;82.20
68764;DHT22;55754;52.038;5.566;2022-11-09T04:31:39;13.20;82.20
68764;DHT22;55754;52.038;5.566;2022-11-09T04:34:05;13.10;82.10
68764;DHT22;55754;52.038;5.566;2022-11-09T04:36:30;13.10;82.00
68764;DHT22;55754;52.038;5.566;2022-11-09T04:38:56;13.10;81.90
68764;DHT22;55754;52.038;5.566;2022-11-09T04:41:21;13.10;82.00
68764;DHT22;55754;52.038;5.566;2022-11-09T04:43:47;13.10;81.90
68764;DHT22;55754;52.038;5.566;2022-11-09T04:46:12;13.10;82.00
68764;DHT22;55754;52.038;5.566;2022-11-09T04:48:38;13.10;81.90
68764;DHT22;55754;52.038;5.566;2022-11-09T04:51:08;13.10;81.90
68764;DHT22;55754;52.038;5.566;2022-11-09T04:53:38;13.10;81.90
68764;DHT22;55754;52.038;5.566;2022-11-09T04:56:04;13.10;81.90
68764;DHT22;55754;52.038;5.566;2022-11-09T04:58:31;13.00;81.80
68764;DHT22;55754;52.038;5.566;2022-11-09T05:01:05;13.10;81.90
68764;DHT22;55754;52.038;5.566;2022-11-09T05:03:31;13.10;81.80
68764;DHT22;55754;52.038;5.566;2022-11-09T05:05:56;13.10;81.90
68764;DHT22;55754;52.038;5.566;2022-11-09T05:08:22;13.10;82.00
68764;DHT22;55754;52.038;5.566;2022-11-09T05:10:48;13.10;82.00
68764;DHT22;55754;52.038;5.566;2022-11-09T05:13:13;13.10;82.00
68764;DHT22;55754;52.038;5.566;2022-11-09T05:15:39;13.10;82.10
68764;DHT22;55754;52.038;5.566;2022-11-09T05:18:06;13.10;82.00
68764;DHT22;55754;52.038;5.566;2022-11-09T05:20:33;13.10;82.20
68764;DHT22;55754;52.038;5.566;2022-11-09T05:22:59;13.00;82.20
68764;DHT22;55754;52.038;5.566;2022-11-09T05:25:44;13.00;82.20
68764;DHT22;55754;52.038;5.566;2022-11-09T05:28:10;13.00;82.20
68764;DHT22;55754;52.038;5.566;2022-11-09T05:30:35;13.30;82.40
68764;DHT22;55754;52.038;5.566;2022-11-09T05:33:01;13.00;82.20
68764;DHT22;55754;52.038;5.566;2022-11-09T05:35:26;13.00;82.30
68764;DHT22;55754;52.038;5.566;2022-11-09T05:37:52;13.00;82.30
68764;DHT22;55754;52.038;5.566;2022-11-09T05:40:18;13.00;82.30
68764;DHT22;55754;52.038;5.566;2022-11-09T05:42:44;13.00;82.40
68764;DHT22;55754;52.038;5.566;2022-11-09T05:45:15;13.00;82.40
68764;DHT22;55754;52.038;5.566;2022-11-09T05:47:43;12.90;82.60
68764;DHT22;55754;52.038;5.566;2022-11-09T05:50:11;12.90;82.50
68764;DHT22;55754;52.038;5.566;2022-11-09T05:52:37;12.90;82.60
68764;DHT22;55754;52.038;5.566;2022-11-09T05:55:03;12.90;82.70
68764;DHT22;55754;52.038;5.566;2022-11-09T05:57:29;12.90;82.70
68764;DHT22;55754;52.038;5.566;2022-11-09T05:59:55;12.90;82.70
68764;DHT22;55754;52.038;5.566;2022-11-09T06:02:20;12.90;82.60
68764;DHT22;55754;52.038;5.566;2022-11-09T06:04:46;12.90;82.80
68764;DHT22;55754;52.038;5.566;2022-11-09T06:07:11;12.90;82.80
68764;DHT22;55754;52.038;5.566;2022-11-09T06:09:37;12.90;83.00
68764;DHT22;55754;52.038;5.566;2022-11-09T06:12:02;12.90;83.00
68764;DHT22;55754;52.038;5.566;2022-11-09T06:14:28;12.90;83.10
68764;DHT22;55754;52.038;5.566;2022-11-09T06:16:53;12.90;83.20
68764;DHT22;55754;52.038;5.566;2022-11-09T06:19:19;12.90;83.20
68764;DHT22;55754;52.038;5.566;2022-11-09T06:21:47;12.80;83.30
68764;DHT22;55754;52.038;5.566;2022-11-09T06:24:13;12.80;83.20
68764;DHT22;55754;52.038;5.566;2022-11-09T06:26:39;12.80;83.30
68764;DHT22;55754;52.038;5.566;2022-11-09T06:29:04;12.90;83.60
68764;DHT22;55754;52.038;5.566;2022-11-09T06:31:30;12.90;83.40
68764;DHT22;55754;52.038;5.566;2022-11-09T06:33:55;12.80;83.50
68764;DHT22;55754;52.038;5.566;2022-11-09T06:36:24;12.80;83.60
68764;DHT22;55754;52.038;5.566;2022-11-09T06:38:51;12.80;83.70
68764;DHT22;55754;52.038;5.566;2022-11-09T06:41:17;12.80;83.70
68764;DHT22;55754;52.038;5.566;2022-11-09T06:43:43;12.80;83.80
68764;DHT22;55754;52.038;5.566;2022-11-09T06:46:09;12.80;83.80
68764;DHT22;55754;52.038;5.566;2022-11-09T06:48:36;12.70;83.80
68764;DHT22;55754;52.038;5.566;2022-11-09T06:51:03;12.70;83.80
68764;DHT22;55754;52.038;5.566;2022-11-09T06:53:30;12.70;83.80
68764;DHT22;55754;52.038;5.566;2022-11-09T06:56:02;12.70;84.00
68764;DHT22;55754;52.038;5.566;2022-11-09T06:58:28;12.70;84.30
68764;DHT22;55754;52.038;5.566;2022-11-09T07:00:54;12.70;84.40
68764;DHT22;55754;52.038;5.566;2022-11-09T07:03:20;12.70;84.20
68764;DHT22;55754;52.038;5.566;2022-11-09T07:05:48;12.70;84.30
68764;DHT22;55754;52.038;5.566;2022-11-09T07:08:14;12.60;84.30
68764;DHT22;55754;52.038;5.566;2022-11-09T07:10:41;12.70;85.20
68764;DHT22;55754;52.038;5.566;2022-11-09T07:13:07;12.70;84.30
68764;DHT22;55754;52.038;5.566;2022-11-09T07:15:33;12.70;84.40
68764;DHT22;55754;52.038;5.566;2022-11-09T07:18:01;12.70;84.40
68764;DHT22;55754;52.038;5.566;2022-11-09T07:20:27;12.70;84.30
68764;DHT22;55754;52.038;5.566;2022-11-09T07:22:53;12.70;84.40
68764;DHT22;55754;52.038;5.566;2022-11-09T07:25:18;12.70;84.40
68764;DHT22;55754;52.038;5.566;2022-11-09T07:27:44;12.80;84.30
68764;DHT22;55754;52.038;5.566;2022-11-09T07:30:10;12.90;84.20
68764;DHT22;55754;52.038;5.566;2022-11-09T07:32:37;12.80;84.00
68764;DHT22;55754;52.038;5.566;2022-11-09T07:35:04;12.80;84.10
68764;DHT22;55754;52.038;5.566;2022-11-09T07:37:31;12.90;84.10
68764;DHT22;55754;52.038;5.566;2022-11-09T07:39:57;12.90;84.00
68764;DHT22;55754;52.038;5.566;2022-11-09T07:42:23;12.90;84.00
68764;DHT22;55754;52.038;5.566;2022-11-09T07:44:49;12.90;84.00
68764;DHT22;55754;52.038;5.566;2022-11-09T07:47:16;12.90;83.90
68764;DHT22;55754;52.038;5.566;2022-11-09T07:49:41;12.90;83.90
68764;DHT22;55754;52.038;5.566;2022-11-09T07:52:07;13.00;83.90
68764;DHT22;55754;52.038;5.566;2022-11-09T07:54:32;13.00;83.80
68764;DHT22;55754;52.038;5.566;2022-11-09T07:56:58;13.00;83.70
68764;DHT22;55754;52.038;5.566;2022-11-09T07:59:23;13.10;83.60
68764;DHT22;55754;52.038;5.566;2022-11-09T08:01:49;13.20;83.60
68764;DHT22;55754;52.038;5.566;2022-11-09T08:04:14;13.20;83.40
68764;DHT22;55754;52.038;5.566;2022-11-09T08:06:40;13.30;83.30
68764;DHT22;55754;52.038;5.566;2022-11-09T08:09:06;13.30;83.10
68764;DHT22;55754;52.038;5.566;2022-11-09T08:11:31;13.30;83.00
68764;DHT22;55754;52.038;5.566;2022-11-09T08:13:57;13.30;83.80
68764;DHT22;55754;52.038;5.566;2022-11-09T08:16:23;13.40;82.80
68764;DHT22;55754;52.038;5.566;2022-11-09T08:18:49;13.50;82.70
68764;DHT22;55754;52.038;5.566;2022-11-09T08:21:16;13.60;82.50
68764;DHT22;55754;52.038;5.566;2022-11-09T08:23:41;13.70;82.20
68764;DHT22;55754;52.038;5.566;2022-11-09T08:26:07;13.80;82.00
68764;DHT22;55754;52.038;5.566;2022-11-09T08:28:33;14.00;81.80
68764;DHT22;55754;52.038;5.566;2022-11-09T08:31:00;14.00;81.20
68764;DHT22;55754;52.038;5.566;2022-11-09T08:33:29;14.20;80.70
68764;DHT22;55754;52.038;5.566;2022-11-09T08:35:58;14.30;80.60
68764;DHT22;55754;52.038;5.566;2022-11-09T08:38:23;14.30;80.10
68764;DHT22;55754;52.038;5.566;2022-11-09T08:40:49;14.40;79.80
68764;DHT22;55754;52.038;5.566;2022-11-09T08:43:14;14.40;79.60
68764;DHT22;55754;52.038;5.566;2022-11-09T08:45:40;14.40;79.20
68764;DHT22;55754;52.038;5.566;2022-11-09T08:48:07;14.50;79.20
68764;DHT22;55754;52.038;5.566;2022-11-09T08:50:34;14.60;78.90
68764;DHT22;55754;52.038;5.566;2022-11-09T08:53:01;14.60;78.90
68764;DHT22;55754;52.038;5.566;2022-11-09T08:55:27;14.60;78.70
68764;DHT22;55754;52.038;5.566;2022-11-09T08:57:57;14.50;78.60
68764;DHT22;55754;52.038;5.566;2022-11-09T09:00:23;14.60;78.30
68764;DHT22;55754;52.038;5.566;2022-11-09T09:02:49;14.60;78.10
68764;DHT22;55754;52.038;5.566;2022-11-09T09:05:15;14.60;77.90
68764;DHT22;55754;52.038;5.566;2022-11-09T09:07:41;14.70;77.90
68764;DHT22;55754;52.038;5.566;2022-11-09T09:10:10;14.70;77.90
68764;DHT22;55754;52.038;5.566;2022-11-09T09:12:36;14.80;77.60
68764;DHT22;55754;52.038;5.566;2022-11-09T09:15:02;14.80;77.40
68764;DHT22;55754;52.038;5.566;2022-11-09T09:17:28;14.80;77.10
68764;DHT22;55754;52.038;5.566;2022-11-09T09:19:53;14.80;78.00
68764;DHT22;55754;52.038;5.566;2022-11-09T09:22:19;14.90;77.10
68764;DHT22;55754;52.038;5.566;2022-11-09T09:24:45;14.90;76.80
68764;DHT22;55754;52.038;5.566;2022-11-09T09:27:10;14.90;76.50
68764;DHT22;55754;52.038;5.566;2022-11-09T09:29:36;15.00;76.30
68764;DHT22;55754;52.038;5.566;2022-11-09T09:32:02;15.00;76.20
68764;DHT22;55754;52.038;5.566;2022-11-09T09:34:43;14.90;75.90
68764;DHT22;55754;52.038;5.566;2022-11-09T09:37:08;14.90;75.70
68764;DHT22;55754;52.038;5.566;2022-11-09T09:39:34;14.90;76.00
68764;DHT22;55754;52.038;5.566;2022-11-09T09:42:03;14.90;76.10
68764;DHT22;55754;52.038;5.566;2022-11-09T09:47:09;14.80;75.90
68764;DHT22;55754;52.038;5.566;2022-11-09T09:49:40;14.80;75.20
68764;DHT22;55754;52.038;5.566;2022-11-09T09:57:36;14.80;75.60
68764;DHT22;55754;52.038;5.566;2022-11-09T10:00:05;14.90;75.20
68764;DHT22;55754;52.038;5.566;2022-11-09T10:02:35;14.90;75.40
68764;DHT22;55754;52.038;5.566;2022-11-09T10:05:06;15.00;75.60
68764;DHT22;55754;52.038;5.566;2022-11-09T10:07:50;14.90;74.90
68764;DHT22;55754;52.038;5.566;2022-11-09T10:16:49;14.80;75.20
68764;DHT22;55754;52.038;5.566;2022-11-09T10:19:39;14.70;74.80
68764;DHT22;55754;52.038;5.566;2022-11-09T10:25:12;14.80;75.40
68764;DHT22;55754;52.038;5.566;2022-11-09T10:27:54;14.70;75.20
68764;DHT22;55754;52.038;5.566;2022-11-09T10:30:26;14.80;75.40
68764;DHT22;55754;52.038;5.566;2022-11-09T10:32:55;14.80;75.40
68764;DHT22;55754;52.038;5.566;2022-11-09T10:35:26;14.80;76.20
68764;DHT22;55754;52.038;5.566;2022-11-09T10:37:53;14.80;75.30
68764;DHT22;55754;52.038;5.566;2022-11-09T10:40:51;14.80;75.50
68764;DHT22;55754;52.038;5.566;2022-11-09T10:43:17;14.80;74.50
68764;DHT22;55754;52.038;5.566;2022-11-09T10:45:44;14.70;74.60
68764;DHT22;55754;52.038;5.566;2022-11-09T10:48:12;14.60;74.50
68764;DHT22;55754;52.038;5.566;2022-11-09T10:50:47;14.60;74.90
68764;DHT22;55754;52.038;5.566;2022-11-09T10:56:15;14.50;75.30
68764;DHT22;55754;52.038;5.566;2022-11-09T10:58:52;14.50;74.80
68764;DHT22;55754;52.038;5.566;2022-11-09T11:01:22;14.50;74.70
68764;DHT22;55754;52.038;5.566;2022-11-09T11:03:53;14.50;74.90
68764;DHT22;55754;52.038;5.566;2022-11-09T11:11:34;14.70;74.30
68764;DHT22;55754;52.038;5.566;2022-11-09T11:16:38;14.70;73.80
68764;DHT22;55754;52.038;5.566;2022-11-09T11:19:04;14.70;73.10
68764;DHT22;55754;52.038;5.566;2022-11-09T11:21:30;14.70;73.70
68764;DHT22;55754;52.038;5.566;2022-11-09T11:24:17;14.70;73.90
68764;DHT22;55754;52.038;5.566;2022-11-09T11:26:57;14.70;73.30
68764;DHT22;55754;52.038;5.566;2022-11-09T11:29:45;14.70;73.40
68764;DHT22;55754;52.038;5.566;2022-11-09T11:32:17;14.70;73.10
68764;DHT22;55754;52.038;5.566;2022-11-09T11:34:43;14.70;73.70
68764;DHT22;55754;52.038;5.566;2022-11-09T11:38:11;14.70;73.90
68764;DHT22;55754;52.038;5.566;2022-11-09T11:40:29;14.70;73.70
68764;DHT22;55754;52.038;5.566;2022-11-09T11:45:57;14.70;73.40
68764;DHT22;55754;52.038;5.566;2022-11-09T11:48:49;14.70;73.70
68764;DHT22;55754;52.038;5.566;2022-11-09T11:51:48;14.70;72.70
68764;DHT22;55754;52.038;5.566;2022-11-09T11:56:46;14.70;73.30
68764;DHT22;55754;52.038;5.566;2022-11-09T12:10:39;14.80;73.40
68764;DHT22;55754;52.038;5.566;2022-11-09T12:13:38;14.80;73.90
68764;DHT22;55754;52.038;5.566;2022-11-09T12:17:00;14.80;74.00
68764;DHT22;55754;52.038;5.566;2022-11-09T12:22:07;14.80;74.00
68764;DHT22;55754;52.038;5.566;2022-11-09T12:24:49;14.80;74.20
68764;DHT22;55754;52.038;5.566;2022-11-09T12:30:04;15.60;74.40
68764;DHT22;55754;52.038;5.566;2022-11-09T12:32:40;15.00;73.40
68764;DHT22;55754;52.038;5.566;2022-11-09T12:37:38;15.00;73.10
68764;DHT22;55754;52.038;5.566;2022-11-09T12:40:25;15.00;73.00
68764;DHT22;55754;52.038;5.566;2022-11-09T12:43:46;15.00;72.90
68764;DHT22;55754;52.038;5.566;2022-11-09T12:45:55;15.00;72.90
68764;DHT22;55754;52.038;5.566;2022-11-09T12:48:28;14.90;72.90
68764;DHT22;55754;52.038;5.566;2022-11-09T12:50:56;14.90;73.10
68764;DHT22;55754;52.038;5.566;2022-11-09T12:53:27;14.90;73.30
68764;DHT22;55754;52.038;5.566;2022-11-09T12:55:56;15.00;73.20
68764;DHT22;55754;52.038;5.566;2022-11-09T12:58:29;14.90;72.80
68764;DHT22;55754;52.038;5.566;2022-11-09T13:00:58;14.90;72.60
68764;DHT22;55754;52.038;5.566;2022-11-09T13:03:26;14.90;72.60
68764;DHT22;55754;52.038;5.566;2022-11-09T13:11:44;14.70;72.40
68764;DHT22;55754;52.038;5.566;2022-11-09T13:16:58;14.80;72.30
68764;DHT22;55754;52.038;5.566;2022-11-09T13:22:02;14.80;71.50
68764;DHT22;55754;52.038;5.566;2022-11-09T13:30:01;14.80;71.30
68764;DHT22;55754;52.038;5.566;2022-11-09T13:32:28;14.80;71.80
68764;DHT22;55754;52.038;5.566;2022-11-09T13:34:56;14.90;71.60
68764;DHT22;55754;52.038;5.566;2022-11-09T13:45:52;14.90;71.30
68764;DHT22;55754;52.038;5.566;2022-11-09T13:48:47;14.80;70.30
68764;DHT22;55754;52.038;5.566;2022-11-09T13:54:02;14.90;70.00
68764;DHT22;55754;52.038;5.566;2022-11-09T13:56:36;14.90;70.80
68764;DHT22;55754;52.038;5.566;2022-11-09T13:59:25;14.90;70.40
68764;DHT22;55754;52.038;5.566;2022-11-09T14:01:58;14.90;70.00
68764;DHT22;55754;52.038;5.566;2022-11-09T14:07:19;14.90;70.30
68764;DHT22;55754;52.038;5.566;2022-11-09T14:09:55;14.90;69.60
68764;DHT22;55754;52.038;5.566;2022-11-09T14:15:18;14.90;70.30
68764;DHT22;55754;52.038;5.566;2022-11-09T14:18:00;15.00;70.10
68764;DHT22;55754;52.038;5.566;2022-11-09T14:23:19;15.00;69.70
68764;DHT22;55754;52.038;5.566;2022-11-09T14:25:46;14.90;70.00
68764;DHT22;55754;52.038;5.566;2022-11-09T14:28:27;14.90;70.30
68764;DHT22;55754;52.038;5.566;2022-11-09T14:30:54;14.90;70.20
68764;DHT22;55754;52.038;5.566;2022-11-09T14:33:26;14.80;69.90
68764;DHT22;55754;52.038;5.566;2022-11-09T14:35:54;14.80;70.30
68764;DHT22;55754;52.038;5.566;2022-11-09T14:38:27;14.80;70.70
68764;DHT22;55754;52.038;5.566;2022-11-09T14:40:54;14.80;70.60
68764;DHT22;55754;52.038;5.566;2022-11-09T14:43:36;14.70;70.70
68764;DHT22;55754;52.038;5.566;2022-11-09T14:46:05;14.70;70.50
68764;DHT22;55754;52.038;5.566;2022-11-09T14:48:32;14.70;70.90
68764;DHT22;55754;52.038;5.566;2022-11-09T14:51:00;14.60;70.80
68764;DHT22;55754;52.038;5.566;2022-11-09T14:53:32;14.70;71.00
68764;DHT22;55754;52.038;5.566;2022-11-09T14:56:02;14.70;71.00
68764;DHT22;55754;52.038;5.566;2022-11-09T14:58:30;14.60;71.10
68764;DHT22;55754;52.038;5.566;2022-11-09T15:03:45;14.60;70.40
68764;DHT22;55754;52.038;5.566;2022-11-09T15:06:30;14.60;70.60
68764;DHT22;55754;52.038;5.566;2022-11-09T15:08:59;14.60;70.60
68764;DHT22;55754;52.038;5.566;2022-11-09T15:11:36;14.50;70.90
68764;DHT22;55754;52.038;5.566;2022-11-09T15:14:27;14.50;70.60
68764;DHT22;55754;52.038;5.566;2022-11-09T15:17:05;14.50;70.10
68764;DHT22;55754;52.038;5.566;2022-11-09T15:19:33;14.50;70.70
68764;DHT22;55754;52.038;5.566;2022-11-09T15:22:01;14.50;70.50
68764;DHT22;55754;52.038;5.566;2022-11-09T15:24:43;14.50;70.70
68764;DHT22;55754;52.038;5.566;2022-11-09T15:30:33;14.50;70.30
68764;DHT22;55754;52.038;5.566;2022-11-09T15:32:59;14.40;70.80
68764;DHT22;55754;52.038;5.566;2022-11-09T15:35:26;14.40;70.70
68764;DHT22;55754;52.038;5.566;2022-11-09T15:37:52;14.30;70.80
68764;DHT22;55754;52.038;5.566;2022-11-09T15:40:21;14.30;70.80
68764;DHT22;55754;52.038;5.566;2022-11-09T15:42:47;14.30;70.90
68764;DHT22;55754;52.038;5.566;2022-11-09T15:45:14;14.40;70.90
68764;DHT22;55754;52.038;5.566;2022-11-09T15:47:51;14.40;71.00
68764;DHT22;55754;52.038;5.566;2022-11-09T15:50:26;14.30;70.90
68764;DHT22;55754;52.038;5.566;2022-11-09T15:52:52;14.30;71.00
68764;DHT22;55754;52.038;5.566;2022-11-09T15:55:20;14.30;71.20
68764;DHT22;55754;52.038;5.566;2022-11-09T15:57:49;14.20;71.40
68764;DHT22;55754;52.038;5.566;2022-11-09T16:00:18;14.30;71.50
68764;DHT22;55754;52.038;5.566;2022-11-09T16:02:44;14.20;71.60
68764;DHT22;55754;52.038;5.566;2022-11-09T16:05:10;14.20;71.80
68764;DHT22;55754;52.038;5.566;2022-11-09T16:07:36;14.10;71.80
68764;DHT22;55754;52.038;5.566;2022-11-09T16:10:02;14.10;71.90
68764;DHT22;55754;52.038;5.566;2022-11-09T16:12:30;14.10;72.20
68764;DHT22;55754;52.038;5.566;2022-11-09T16:14:56;14.10;72.20
68764;DHT22;55754;52.038;5.566;2022-11-09T16:17:21;14.10;72.50
68764;DHT22;55754;52.038;5.566;2022-11-09T16:19:50;14.00;72.70
68764;DHT22;55754;52.038;5.566;2022-11-09T16:22:16;14.00;72.90
68764;DHT22;55754;52.038;5.566;2022-11-09T16:24:41;14.00;73.60
68764;DHT22;55754;52.038;5.566;2022-11-09T16:27:07;14.00;74.00
68764;DHT22;55754;52.038;5.566;2022-11-09T16:29:33;13.90;74.30
68764;DHT22;55754;52.038;5.566;2022-11-09T16:31:58;13.90;74.50
68764;DHT22;55754;52.038;5.566;2022-11-09T16:34:25;13.80;74.90
68764;DHT22;55754;52.038;5.566;2022-11-09T16:36:51;13.80;75.10
68764;DHT22;55754;52.038;5.566;2022-11-09T16:39:16;13.80;75.30
68764;DHT22;55754;52.038;5.566;2022-11-09T16:41:44;13.80;75.40
68764;DHT22;55754;52.038;5.566;2022-11-09T16:44:12;13.80;75.60
68764;DHT22;55754;52.038;5.566;2022-11-09T16:46:40;13.30;75.50
68764;DHT22;55754;52.038;5.566;2022-11-09T16:49:06;13.70;76.00
68764;DHT22;55754;52.038;5.566;2022-11-09T16:51:32;13.70;76.10
68764;DHT22;55754;52.038;5.566;2022-11-09T16:53:58;13.70;76.40
68764;DHT22;55754;52.038;5.566;2022-11-09T16:56:23;13.70;76.50
68764;DHT22;55754;52.038;5.566;2022-11-09T16:58:49;13.70;76.50
68764;DHT22;55754;52.038;5.566;2022-11-09T17:01:14;13.60;76.70
68764;DHT22;55754;52.038;5.566;2022-11-09T17:03:40;13.60;76.60
68764;DHT22;55754;52.038;5.566;2022-11-09T17:06:06;13.60;76.80
68764;DHT22;55754;52.038;5.566;2022-11-09T17:08:36;13.60;76.80
68764;DHT22;55754;52.038;5.566;2022-11-09T17:11:06;13.60;76.90
68764;DHT22;55754;52.038;5.566;2022-11-09T17:13:35;13.60;77.00
68764;DHT22;55754;52.038;5.566;2022-11-09T17:16:10;13.60;77.30
68764;DHT22;55754;52.038;5.566;2022-11-09T17:18:41;13.60;77.30
68764;DHT22;55754;52.038;5.566;2022-11-09T17:21:11;13.60;77.30